sensor_id;sensor_type;location;lat;lon;timestamp;temperature;humidity
65707;SHT31;52423;43.512;5.220;2023-05-10T00:01:04;15.67;86.74
65707;SHT31;52423;43.512;5.220;2023-05-10T00:03:29;15.75;86.30
65707;SHT31;52423;43.512;5.220;2023-05-10T00:05:55;15.63;86.09
65707;SHT31;52423;43.512;5.220;2023-05-10T00:08:20;15.70;85.70
65707;SHT31;52423;43.512;5.220;2023-05-10T00:10:46;15.76;85.79
65707;SHT31;52423;43.512;5.220;2023-05-10T00:13:11;15.66;85.80
65707;SHT31;52423;43.512;5.220;2023-05-10T00:15:37;15.51;85.84
65707;SHT31;52423;43.512;5.220;2023-05-10T00:18:02;15.20;86.69
65707;SHT31;52423;43.512;5.220;2023-05-10T00:20:27;15.20;86.63
65707;SHT31;52423;43.512;5.220;2023-05-10T00:22:53;15.27;86.65
65707;SHT31;52423;43.512;5.220;2023-05-10T00:25:18;15.24;86.54
65707;SHT31;52423;43.512;5.220;2023-05-10T00:27:44;15.20;87.07
65707;SHT31;52423;43.512;5.220;2023-05-10T00:30:09;15.10;87.12
65707;SHT31;52423;43.512;5.220;2023-05-10T00:32:35;15.10;87.10
65707;SHT31;52423;43.512;5.220;2023-05-10T00:35:00;15.07;87.40
65707;SHT31;52423;43.512;5.220;2023-05-10T00:37:25;15.21;87.33
65707;SHT31;52423;43.512;5.220;2023-05-10T00:39:51;15.17;87.75
65707;SHT31;52423;43.512;5.220;2023-05-10T00:42:16;15.27;87.40
65707;SHT31;52423;43.512;5.220;2023-05-10T00:44:42;15.25;87.04
65707;SHT31;52423;43.512;5.220;2023-05-10T00:47:07;15.17;87.45
65707;SHT31;52423;43.512;5.220;2023-05-10T00:49:33;15.25;87.33
65707;SHT31;52423;43.512;5.220;2023-05-10T00:51:59;15.32;87.32
65707;SHT31;52423;43.512;5.220;2023-05-10T00:54:24;15.36;86.91
65707;SHT31;52423;43.512;5.220;2023-05-10T00:56:51;15.38;87.05
65707;SHT31;52423;43.512;5.220;2023-05-10T00:59:17;15.35;86.81
65707;SHT31;52423;43.512;5.220;2023-05-10T01:01:44;15.41;86.76
65707;SHT31;52423;43.512;5.220;2023-05-10T01:04:10;15.44;86.22
65707;SHT31;52423;43.512;5.220;2023-05-10T01:06:37;15.38;86.53
65707;SHT31;52423;43.512;5.220;2023-05-10T01:09:03;15.44;86.68
65707;SHT31;52423;43.512;5.220;2023-05-10T01:11:28;15.35;86.63
65707;SHT31;52423;43.512;5.220;2023-05-10T01:13:57;15.34;86.06
65707;SHT31;52423;43.512;5.220;2023-05-10T01:16:23;15.38;86.66
65707;SHT31;52423;43.512;5.220;2023-05-10T01:18:49;15.32;86.35
65707;SHT31;52423;43.512;5.220;2023-05-10T01:21:35;15.27;86.47
65707;SHT31;52423;43.512;5.220;2023-05-10T01:32:53;15.28;86.64
65707;SHT31;52423;43.512;5.220;2023-05-10T01:41:14;15.21;86.13
65707;SHT31;52423;43.512;5.220;2023-05-10T01:44:05;15.17;85.77
65707;SHT31;52423;43.512;5.220;2023-05-10T01:46:38;15.12;85.51
65707;SHT31;52423;43.512;5.220;2023-05-10T01:49:17;15.04;85.82
65707;SHT31;52423;43.512;5.220;2023-05-10T01:51:53;15.03;85.69
65707;SHT31;52423;43.512;5.220;2023-05-10T01:54:23;15.10;85.76
65707;SHT31;52423;43.512;5.220;2023-05-10T01:56:55;15.10;85.71
65707;SHT31;52423;43.512;5.220;2023-05-10T01:59:21;15.11;85.41
65707;SHT31;52423;43.512;5.220;2023-05-10T02:01:48;15.08;84.91
65707;SHT31;52423;43.512;5.220;2023-05-10T02:04:16;15.03;85.34
65707;SHT31;52423;43.512;5.220;2023-05-10T02:06:43;15.11;84.61
65707;SHT31;52423;43.512;5.220;2023-05-10T02:09:10;14.97;84.40
65707;SHT31;52423;43.512;5.220;2023-05-10T02:11:38;15.08;83.98
65707;SHT31;52423;43.512;5.220;2023-05-10T02:14:07;15.03;82.82
65707;SHT31;52423;43.512;5.220;2023-05-10T02:16:35;15.10;82.97
65707;SHT31;52423;43.512;5.220;2023-05-10T02:19:01;15.01;83.22
65707;SHT31;52423;43.512;5.220;2023-05-10T02:21:27;15.03;82.82
65707;SHT31;52423;43.512;5.220;2023-05-10T02:23:53;14.94;82.36
65707;SHT31;52423;43.512;5.220;2023-05-10T02:26:20;15.07;82.62
65707;SHT31;52423;43.512;5.220;2023-05-10T02:28:47;15.03;83.63
65707;SHT31;52423;43.512;5.220;2023-05-10T02:31:14;15.10;83.40
65707;SHT31;52423;43.512;5.220;2023-05-10T02:33:40;14.97;83.55
65707;SHT31;52423;43.512;5.220;2023-05-10T02:36:07;14.98;83.77
65707;SHT31;52423;43.512;5.220;2023-05-10T02:38:34;14.94;82.41
65707;SHT31;52423;43.512;5.220;2023-05-10T02:41:01;15.03;83.22
65707;SHT31;52423;43.512;5.220;2023-05-10T02:43:30;15.04;82.92
65707;SHT31;52423;43.512;5.220;2023-05-10T02:45:56;14.97;82.84
65707;SHT31;52423;43.512;5.220;2023-05-10T02:48:22;15.00;81.82
65707;SHT31;52423;43.512;5.220;2023-05-10T02:50:50;15.04;82.19
65707;SHT31;52423;43.512;5.220;2023-05-10T02:53:22;15.10;82.51
65707;SHT31;52423;43.512;5.220;2023-05-10T02:55:50;15.20;82.67
65707;SHT31;52423;43.512;5.220;2023-05-10T02:58:16;15.11;82.02
65707;SHT31;52423;43.512;5.220;2023-05-10T03:00:44;15.17;82.05
65707;SHT31;52423;43.512;5.220;2023-05-10T03:03:10;15.18;82.24
65707;SHT31;52423;43.512;5.220;2023-05-10T03:05:35;15.20;82.18
65707;SHT31;52423;43.512;5.220;2023-05-10T03:08:01;15.24;82.08
65707;SHT31;52423;43.512;5.220;2023-05-10T03:10:29;15.20;82.60
65707;SHT31;52423;43.512;5.220;2023-05-10T03:16:05;15.12;82.67
65707;SHT31;52423;43.512;5.220;2023-05-10T03:19:06;15.11;82.90
65707;SHT31;52423;43.512;5.220;2023-05-10T03:21:30;15.17;82.09
65707;SHT31;52423;43.512;5.220;2023-05-10T03:24:02;15.27;81.37
65707;SHT31;52423;43.512;5.220;2023-05-10T03:26:30;15.21;82.52
65707;SHT31;52423;43.512;5.220;2023-05-10T03:28:57;15.20;81.98
65707;SHT31;52423;43.512;5.220;2023-05-10T03:31:24;15.21;81.74
65707;SHT31;52423;43.512;5.220;2023-05-10T03:33:50;15.22;81.68
65707;SHT31;52423;43.512;5.220;2023-05-10T03:36:16;15.25;81.38
65707;SHT31;52423;43.512;5.220;2023-05-10T03:38:41;15.35;80.97
65707;SHT31;52423;43.512;5.220;2023-05-10T03:41:07;15.35;80.71
65707;SHT31;52423;43.512;5.220;2023-05-10T03:43:33;15.35;80.50
65707;SHT31;52423;43.512;5.220;2023-05-10T03:45:58;15.32;80.23
65707;SHT31;52423;43.512;5.220;2023-05-10T03:48:23;15.31;80.44
65707;SHT31;52423;43.512;5.220;2023-05-10T03:50:49;15.39;79.77
65707;SHT31;52423;43.512;5.220;2023-05-10T03:53:15;15.36;79.90
65707;SHT31;52423;43.512;5.220;2023-05-10T03:55:40;15.34;80.07
65707;SHT31;52423;43.512;5.220;2023-05-10T03:58:06;15.35;79.81
65707;SHT31;52423;43.512;5.220;2023-05-10T04:00:31;15.32;80.03
65707;SHT31;52423;43.512;5.220;2023-05-10T04:02:57;15.24;79.48
65707;SHT31;52423;43.512;5.220;2023-05-10T04:05:22;15.28;80.11
65707;SHT31;52423;43.512;5.220;2023-05-10T04:07:48;15.27;79.99
65707;SHT31;52423;43.512;5.220;2023-05-10T04:10:15;15.18;80.34
65707;SHT31;52423;43.512;5.220;2023-05-10T04:12:41;15.22;79.94
65707;SHT31;52423;43.512;5.220;2023-05-10T04:15:07;15.20;80.24
65707;SHT31;52423;43.512;5.220;2023-05-10T04:17:32;15.15;79.89
65707;SHT31;52423;43.512;5.220;2023-05-10T04:19:58;15.14;80.53
65707;SHT31;52423;43.512;5.220;2023-05-10T04:22:23;15.10;80.97
65707;SHT31;52423;43.512;5.220;2023-05-10T04:24:48;15.05;80.65
65707;SHT31;52423;43.512;5.220;2023-05-10T04:27:14;15.00;80.71
65707;SHT31;52423;43.512;5.220;2023-05-10T04:29:39;14.97;80.12
65707;SHT31;52423;43.512;5.220;2023-05-10T04:32:05;14.91;81.04
65707;SHT31;52423;43.512;5.220;2023-05-10T04:34:30;14.91;80.66
65707;SHT31;52423;43.512;5.220;2023-05-10T04:36:55;14.88;81.06
65707;SHT31;52423;43.512;5.220;2023-05-10T04:39:21;14.97;80.91
65707;SHT31;52423;43.512;5.220;2023-05-10T04:41:46;14.94;80.51
65707;SHT31;52423;43.512;5.220;2023-05-10T04:44:11;14.93;80.09
65707;SHT31;52423;43.512;5.220;2023-05-10T04:46:37;14.95;80.67
65707;SHT31;52423;43.512;5.220;2023-05-10T04:49:02;14.97;80.45
65707;SHT31;52423;43.512;5.220;2023-05-10T04:51:28;15.04;80.47
65707;SHT31;52423;43.512;5.220;2023-05-10T04:53:53;14.91;80.94
65707;SHT31;52423;43.512;5.220;2023-05-10T04:56:18;14.90;79.73
65707;SHT31;52423;43.512;5.220;2023-05-10T04:58:44;14.90;80.51
65707;SHT31;52423;43.512;5.220;2023-05-10T05:01:09;14.93;80.29
65707;SHT31;52423;43.512;5.220;2023-05-10T05:03:36;14.91;79.38
65707;SHT31;52423;43.512;5.220;2023-05-10T05:06:02;14.91;79.64
65707;SHT31;52423;43.512;5.220;2023-05-10T05:08:27;15.03;79.47
65707;SHT31;52423;43.512;5.220;2023-05-10T05:10:52;14.93;78.98
65707;SHT31;52423;43.512;5.220;2023-05-10T05:13:18;14.97;79.39
65707;SHT31;52423;43.512;5.220;2023-05-10T05:15:43;15.00;79.67
65707;SHT31;52423;43.512;5.220;2023-05-10T05:18:09;15.05;79.27
65707;SHT31;52423;43.512;5.220;2023-05-10T05:20:35;15.04;79.72
65707;SHT31;52423;43.512;5.220;2023-05-10T05:23:00;15.05;79.10
65707;SHT31;52423;43.512;5.220;2023-05-10T05:25:26;15.07;79.59
65707;SHT31;52423;43.512;5.220;2023-05-10T05:27:51;14.95;77.50
65707;SHT31;52423;43.512;5.220;2023-05-10T05:30:17;15.07;77.81
65707;SHT31;52423;43.512;5.220;2023-05-10T05:32:42;15.08;76.82
65707;SHT31;52423;43.512;5.220;2023-05-10T05:35:08;15.20;76.50
65707;SHT31;52423;43.512;5.220;2023-05-10T05:37:33;15.20;76.98
65707;SHT31;52423;43.512;5.220;2023-05-10T05:39:58;15.17;75.93
65707;SHT31;52423;43.512;5.220;2023-05-10T05:42:26;15.18;76.28
65707;SHT31;52423;43.512;5.220;2023-05-10T05:44:51;15.18;76.19
65707;SHT31;52423;43.512;5.220;2023-05-10T05:47:16;15.22;75.27
65707;SHT31;52423;43.512;5.220;2023-05-10T05:49:42;15.28;75.25
65707;SHT31;52423;43.512;5.220;2023-05-10T05:52:10;15.36;75.14
65707;SHT31;52423;43.512;5.220;2023-05-10T05:54:36;15.36;74.67
65707;SHT31;52423;43.512;5.220;2023-05-10T05:57:01;15.32;75.70
65707;SHT31;52423;43.512;5.220;2023-05-10T05:59:27;15.46;73.75
65707;SHT31;52423;43.512;5.220;2023-05-10T06:01:52;15.44;73.53
65707;SHT31;52423;43.512;5.220;2023-05-10T06:04:18;15.45;74.17
65707;SHT31;52423;43.512;5.220;2023-05-10T06:06:43;15.49;74.01
65707;SHT31;52423;43.512;5.220;2023-05-10T06:09:09;15.49;73.06
65707;SHT31;52423;43.512;5.220;2023-05-10T06:11:35;15.52;73.18
65707;SHT31;52423;43.512;5.220;2023-05-10T06:14:01;15.49;72.54
65707;SHT31;52423;43.512;5.220;2023-05-10T06:16:28;15.63;74.03
65707;SHT31;52423;43.512;5.220;2023-05-10T06:18:54;15.62;74.36
65707;SHT31;52423;43.512;5.220;2023-05-10T06:21:19;15.78;73.47
65707;SHT31;52423;43.512;5.220;2023-05-10T06:23:44;15.79;73.17
65707;SHT31;52423;43.512;5.220;2023-05-10T06:26:10;15.78;72.31
65707;SHT31;52423;43.512;5.220;2023-05-10T06:28:36;15.86;71.55
65707;SHT31;52423;43.512;5.220;2023-05-10T06:31:03;15.83;72.12
65707;SHT31;52423;43.512;5.220;2023-05-10T06:33:29;15.87;71.92
65707;SHT31;52423;43.512;5.220;2023-05-10T06:35:54;15.85;71.06
65707;SHT31;52423;43.512;5.220;2023-05-10T06:38:20;16.00;72.11
65707;SHT31;52423;43.512;5.220;2023-05-10T06:40:45;16.09;69.89
65707;SHT31;52423;43.512;5.220;2023-05-10T06:43:10;16.16;71.69
65707;SHT31;52423;43.512;5.220;2023-05-10T06:45:36;16.20;70.07
65707;SHT31;52423;43.512;5.220;2023-05-10T06:48:01;16.30;68.78
65707;SHT31;52423;43.512;5.220;2023-05-10T06:50:26;16.13;68.85
65707;SHT31;52423;43.512;5.220;2023-05-10T06:52:52;16.24;67.91
65707;SHT31;52423;43.512;5.220;2023-05-10T06:55:17;16.25;67.37
65707;SHT31;52423;43.512;5.220;2023-05-10T06:57:43;16.37;67.49
65707;SHT31;52423;43.512;5.220;2023-05-10T07:00:08;16.38;67.22
65707;SHT31;52423;43.512;5.220;2023-05-10T07:02:35;16.51;67.47
65707;SHT31;52423;43.512;5.220;2023-05-10T07:05:00;16.57;65.93
65707;SHT31;52423;43.512;5.220;2023-05-10T07:07:27;16.61;65.58
65707;SHT31;52423;43.512;5.220;2023-05-10T07:09:52;16.61;64.54
65707;SHT31;52423;43.512;5.220;2023-05-10T07:12:18;16.68;63.90
65707;SHT31;52423;43.512;5.220;2023-05-10T07:14:43;16.76;63.84
65707;SHT31;52423;43.512;5.220;2023-05-10T07:17:09;16.82;64.08
65707;SHT31;52423;43.512;5.220;2023-05-10T07:19:35;16.95;63.33
65707;SHT31;52423;43.512;5.220;2023-05-10T07:22:01;16.91;62.37
65707;SHT31;52423;43.512;5.220;2023-05-10T07:24:26;17.05;64.42
65707;SHT31;52423;43.512;5.220;2023-05-10T07:26:52;17.09;63.16
65707;SHT31;52423;43.512;5.220;2023-05-10T07:29:17;17.22;63.53
65707;SHT31;52423;43.512;5.220;2023-05-10T07:31:43;17.20;61.31
65707;SHT31;52423;43.512;5.220;2023-05-10T07:34:08;17.16;61.59
65707;SHT31;52423;43.512;5.220;2023-05-10T07:36:34;17.30;62.37
65707;SHT31;52423;43.512;5.220;2023-05-10T07:39:00;17.40;63.40
65707;SHT31;52423;43.512;5.220;2023-05-10T07:41:25;17.50;61.58
65707;SHT31;52423;43.512;5.220;2023-05-10T07:43:51;17.50;62.64
65707;SHT31;52423;43.512;5.220;2023-05-10T07:46:16;17.74;60.53
65707;SHT31;52423;43.512;5.220;2023-05-10T07:48:41;17.73;60.19
65707;SHT31;52423;43.512;5.220;2023-05-10T07:51:07;17.87;60.62
65707;SHT31;52423;43.512;5.220;2023-05-10T07:53:34;18.01;59.59
65707;SHT31;52423;43.512;5.220;2023-05-10T07:56:25;18.01;59.62
65707;SHT31;52423;43.512;5.220;2023-05-10T07:58:53;18.11;56.90
65707;SHT31;52423;43.512;5.220;2023-05-10T08:01:19;18.09;55.14
65707;SHT31;52423;43.512;5.220;2023-05-10T08:03:44;18.12;57.13
65707;SHT31;52423;43.512;5.220;2023-05-10T08:06:10;18.15;58.03
65707;SHT31;52423;43.512;5.220;2023-05-10T08:08:35;18.26;58.40
65707;SHT31;52423;43.512;5.220;2023-05-10T08:11:01;18.28;54.73
65707;SHT31;52423;43.512;5.220;2023-05-10T08:13:26;18.29;54.18
65707;SHT31;52423;43.512;5.220;2023-05-10T08:15:52;18.25;56.32
65707;SHT31;52423;43.512;5.220;2023-05-10T08:18:18;18.25;57.30
65707;SHT31;52423;43.512;5.220;2023-05-10T08:20:44;18.41;55.90
65707;SHT31;52423;43.512;5.220;2023-05-10T08:23:09;18.66;56.12
65707;SHT31;52423;43.512;5.220;2023-05-10T08:25:35;18.60;55.75
65707;SHT31;52423;43.512;5.220;2023-05-10T08:28:00;18.66;55.23
65707;SHT31;52423;43.512;5.220;2023-05-10T08:30:25;18.46;53.13
65707;SHT31;52423;43.512;5.220;2023-05-10T08:32:51;18.48;54.16
65707;SHT31;52423;43.512;5.220;2023-05-10T08:35:16;18.52;53.10
65707;SHT31;52423;43.512;5.220;2023-05-10T08:37:41;18.26;49.83
65707;SHT31;52423;43.512;5.220;2023-05-10T08:40:08;18.29;51.64
65707;SHT31;52423;43.512;5.220;2023-05-10T08:42:36;18.48;52.69
65707;SHT31;52423;43.512;5.220;2023-05-10T08:45:07;18.52;50.24
65707;SHT31;52423;43.512;5.220;2023-05-10T08:47:33;18.55;47.90
65707;SHT31;52423;43.512;5.220;2023-05-10T08:50:00;18.55;47.57
65707;SHT31;52423;43.512;5.220;2023-05-10T08:52:27;18.48;48.64
65707;SHT31;52423;43.512;5.220;2023-05-10T08:54:55;18.49;48.04
65707;SHT31;52423;43.512;5.220;2023-05-10T08:57:20;18.65;47.68
65707;SHT31;52423;43.512;5.220;2023-05-10T08:59:46;18.77;47.82
65707;SHT31;52423;43.512;5.220;2023-05-10T09:02:13;18.92;47.52
65707;SHT31;52423;43.512;5.220;2023-05-10T09:04:38;18.80;45.83
65707;SHT31;52423;43.512;5.220;2023-05-10T09:07:04;18.66;45.13
65707;SHT31;52423;43.512;5.220;2023-05-10T09:09:30;18.53;44.31
65707;SHT31;52423;43.512;5.220;2023-05-10T09:11:56;18.45;45.99
65707;SHT31;52423;43.512;5.220;2023-05-10T09:14:24;18.83;47.45
65707;SHT31;52423;43.512;5.220;2023-05-10T09:16:50;18.74;44.90
65707;SHT31;52423;43.512;5.220;2023-05-10T09:19:15;18.89;44.21
65707;SHT31;52423;43.512;5.220;2023-05-10T09:21:41;18.93;44.86
65707;SHT31;52423;43.512;5.220;2023-05-10T09:24:07;18.93;43.38
65707;SHT31;52423;43.512;5.220;2023-05-10T09:26:33;18.97;43.58
65707;SHT31;52423;43.512;5.220;2023-05-10T09:29:00;19.07;42.87
65707;SHT31;52423;43.512;5.220;2023-05-10T09:31:44;18.99;44.70
65707;SHT31;52423;43.512;5.220;2023-05-10T09:34:15;19.04;43.92
65707;SHT31;52423;43.512;5.220;2023-05-10T09:36:52;19.10;43.80
65707;SHT31;52423;43.512;5.220;2023-05-10T09:39:18;19.08;40.45
65707;SHT31;52423;43.512;5.220;2023-05-10T09:41:43;19.41;42.07
65707;SHT31;52423;43.512;5.220;2023-05-10T09:44:09;19.31;41.99
65707;SHT31;52423;43.512;5.220;2023-05-10T09:46:37;19.32;43.56
65707;SHT31;52423;43.512;5.220;2023-05-10T09:49:02;19.52;42.28
65707;SHT31;52423;43.512;5.220;2023-05-10T09:51:28;19.45;43.13
65707;SHT31;52423;43.512;5.220;2023-05-10T09:54:15;19.57;42.30
65707;SHT31;52423;43.512;5.220;2023-05-10T09:56:41;19.62;40.68
65707;SHT31;52423;43.512;5.220;2023-05-10T09:59:09;19.30;41.09
65707;SHT31;52423;43.512;5.220;2023-05-10T10:01:35;19.35;42.54
65707;SHT31;52423;43.512;5.220;2023-05-10T10:04:05;19.55;42.73
65707;SHT31;52423;43.512;5.220;2023-05-10T10:06:38;19.68;43.88
65707;SHT31;52423;43.512;5.220;2023-05-10T10:09:04;19.86;42.94
65707;SHT31;52423;43.512;5.220;2023-05-10T10:11:30;19.90;44.47
65707;SHT31;52423;43.512;5.220;2023-05-10T10:13:56;19.52;42.23
65707;SHT31;52423;43.512;5.220;2023-05-10T10:16:21;19.44;42.62
65707;SHT31;52423;43.512;5.220;2023-05-10T10:18:48;19.30;42.63
65707;SHT31;52423;43.512;5.220;2023-05-10T10:21:14;19.61;43.67
65707;SHT31;52423;43.512;5.220;2023-05-10T10:23:40;19.62;41.58
65707;SHT31;52423;43.512;5.220;2023-05-10T10:26:06;19.54;42.50
65707;SHT31;52423;43.512;5.220;2023-05-10T10:28:56;19.99;41.96
65707;SHT31;52423;43.512;5.220;2023-05-10T10:32:01;20.02;41.15
65707;SHT31;52423;43.512;5.220;2023-05-10T10:34:25;20.05;41.37
65707;SHT31;52423;43.512;5.220;2023-05-10T10:36:52;19.69;40.73
65707;SHT31;52423;43.512;5.220;2023-05-10T10:39:18;19.72;41.80
65707;SHT31;52423;43.512;5.220;2023-05-10T10:41:55;19.96;42.61
65707;SHT31;52423;43.512;5.220;2023-05-10T10:47:22;20.22;41.60
65707;SHT31;52423;43.512;5.220;2023-05-10T10:50:08;20.03;39.15
65707;SHT31;52423;43.512;5.220;2023-05-10T10:52:53;19.93;40.23
65707;SHT31;52423;43.512;5.220;2023-05-10T10:55:20;20.12;42.12
65707;SHT31;52423;43.512;5.220;2023-05-10T10:57:54;20.05;40.31
65707;SHT31;52423;43.512;5.220;2023-05-10T11:05:44;20.33;41.47
65707;SHT31;52423;43.512;5.220;2023-05-10T11:10:48;20.17;38.52
65707;SHT31;52423;43.512;5.220;2023-05-10T11:13:13;20.23;39.67
65707;SHT31;52423;43.512;5.220;2023-05-10T11:15:40;20.73;39.77
65707;SHT31;52423;43.512;5.220;2023-05-10T11:18:28;20.47;38.92
65707;SHT31;52423;43.512;5.220;2023-05-10T11:21:00;20.37;38.43
65707;SHT31;52423;43.512;5.220;2023-05-10T11:26:09;20.55;39.32
65707;SHT31;52423;43.512;5.220;2023-05-10T11:28:40;20.88;39.64
65707;SHT31;52423;43.512;5.220;2023-05-10T11:31:06;20.57;39.77
65707;SHT31;52423;43.512;5.220;2023-05-10T11:36:21;20.74;40.59
65707;SHT31;52423;43.512;5.220;2023-05-10T11:38:47;20.44;37.10
65707;SHT31;52423;43.512;5.220;2023-05-10T11:41:14;20.60;36.02
65707;SHT31;52423;43.512;5.220;2023-05-10T11:43:40;20.51;36.03
65707;SHT31;52423;43.512;5.220;2023-05-10T11:46:08;20.80;35.68
65707;SHT31;52423;43.512;5.220;2023-05-10T11:48:34;20.84;37.41
65707;SHT31;52423;43.512;5.220;2023-05-10T11:51:01;20.71;35.06
65707;SHT31;52423;43.512;5.220;2023-05-10T11:53:27;20.41;36.54
65707;SHT31;52423;43.512;5.220;2023-05-10T11:55:53;20.46;37.14
65707;SHT31;52423;43.512;5.220;2023-05-10T11:58:19;20.30;37.46
65707;SHT31;52423;43.512;5.220;2023-05-10T12:00:45;20.34;36.96
65707;SHT31;52423;43.512;5.220;2023-05-10T12:03:11;20.39;36.59
65707;SHT31;52423;43.512;5.220;2023-05-10T12:05:37;20.71;37.03
65707;SHT31;52423;43.512;5.220;2023-05-10T12:08:13;21.01;37.48
65707;SHT31;52423;43.512;5.220;2023-05-10T12:10:39;21.02;36.09
65707;SHT31;52423;43.512;5.220;2023-05-10T12:13:04;21.18;35.84
65707;SHT31;52423;43.512;5.220;2023-05-10T12:15:30;21.11;34.29
65707;SHT31;52423;43.512;5.220;2023-05-10T12:17:56;21.25;34.72
65707;SHT31;52423;43.512;5.220;2023-05-10T12:20:23;21.15;34.03
65707;SHT31;52423;43.512;5.220;2023-05-10T12:22:52;21.25;35.48
65707;SHT31;52423;43.512;5.220;2023-05-10T12:25:19;21.47;34.08
65707;SHT31;52423;43.512;5.220;2023-05-10T12:27:53;21.24;34.04
65707;SHT31;52423;43.512;5.220;2023-05-10T12:30:29;21.14;33.36
65707;SHT31;52423;43.512;5.220;2023-05-10T12:33:11;20.87;34.67
65707;SHT31;52423;43.512;5.220;2023-05-10T12:35:51;20.99;34.57
65707;SHT31;52423;43.512;5.220;2023-05-10T12:38:29;20.80;34.66
65707;SHT31;52423;43.512;5.220;2023-05-10T12:41:03;20.96;34.73
65707;SHT31;52423;43.512;5.220;2023-05-10T12:43:29;21.26;36.25
65707;SHT31;52423;43.512;5.220;2023-05-10T12:45:55;21.11;34.45
65707;SHT31;52423;43.512;5.220;2023-05-10T12:48:20;21.31;34.12
65707;SHT31;52423;43.512;5.220;2023-05-10T12:50:46;21.24;34.24
65707;SHT31;52423;43.512;5.220;2023-05-10T12:53:15;21.21;33.35
65707;SHT31;52423;43.512;5.220;2023-05-10T12:55:41;21.26;33.34
65707;SHT31;52423;43.512;5.220;2023-05-10T12:58:07;21.43;34.66
65707;SHT31;52423;43.512;5.220;2023-05-10T13:00:32;21.46;32.66
65707;SHT31;52423;43.512;5.220;2023-05-10T13:02:57;21.38;33.70
65707;SHT31;52423;43.512;5.220;2023-05-10T13:05:23;21.55;33.21
65707;SHT31;52423;43.512;5.220;2023-05-10T13:07:48;21.42;33.36
65707;SHT31;52423;43.512;5.220;2023-05-10T13:10:13;21.49;33.47
65707;SHT31;52423;43.512;5.220;2023-05-10T13:12:39;21.47;32.56
65707;SHT31;52423;43.512;5.220;2023-05-10T13:15:05;21.72;33.80
65707;SHT31;52423;43.512;5.220;2023-05-10T13:17:30;21.60;31.95
65707;SHT31;52423;43.512;5.220;2023-05-10T13:19:56;21.53;32.32
65707;SHT31;52423;43.512;5.220;2023-05-10T13:22:21;21.82;33.81
65707;SHT31;52423;43.512;5.220;2023-05-10T13:24:46;21.77;32.70
65707;SHT31;52423;43.512;5.220;2023-05-10T13:27:12;21.94;31.85
65707;SHT31;52423;43.512;5.220;2023-05-10T13:29:37;21.56;33.36
65707;SHT31;52423;43.512;5.220;2023-05-10T13:32:03;21.63;32.63
65707;SHT31;52423;43.512;5.220;2023-05-10T13:34:28;21.55;33.50
65707;SHT31;52423;43.512;5.220;2023-05-10T13:36:54;21.55;33.39
65707;SHT31;52423;43.512;5.220;2023-05-10T13:39:20;21.57;32.86
65707;SHT31;52423;43.512;5.220;2023-05-10T13:41:46;21.72;32.80
65707;SHT31;52423;43.512;5.220;2023-05-10T13:44:13;21.57;33.38
65707;SHT31;52423;43.512;5.220;2023-05-10T13:46:39;21.55;33.72
65707;SHT31;52423;43.512;5.220;2023-05-10T13:49:05;21.66;33.58
65707;SHT31;52423;43.512;5.220;2023-05-10T13:51:30;21.74;32.83
65707;SHT31;52423;43.512;5.220;2023-05-10T13:53:57;21.86;33.09
65707;SHT31;52423;43.512;5.220;2023-05-10T13:56:22;21.59;31.86
65707;SHT31;52423;43.512;5.220;2023-05-10T13:58:48;21.67;32.19
65707;SHT31;52423;43.512;5.220;2023-05-10T14:01:13;21.60;31.89
65707;SHT31;52423;43.512;5.220;2023-05-10T14:03:39;21.70;32.55
65707;SHT31;52423;43.512;5.220;2023-05-10T14:06:04;21.60;32.78
65707;SHT31;52423;43.512;5.220;2023-05-10T14:08:29;21.41;33.02
65707;SHT31;52423;43.512;5.220;2023-05-10T14:10:55;21.53;32.89
65707;SHT31;52423;43.512;5.220;2023-05-10T14:13:22;21.35;32.70
65707;SHT31;52423;43.512;5.220;2023-05-10T14:15:47;21.47;33.57
65707;SHT31;52423;43.512;5.220;2023-05-10T14:18:12;21.42;32.89
65707;SHT31;52423;43.512;5.220;2023-05-10T14:20:38;21.42;32.85
65707;SHT31;52423;43.512;5.220;2023-05-10T14:23:03;21.28;33.36
65707;SHT31;52423;43.512;5.220;2023-05-10T14:25:29;21.33;33.47
65707;SHT31;52423;43.512;5.220;2023-05-10T14:27:54;21.32;33.01
65707;SHT31;52423;43.512;5.220;2023-05-10T14:30:20;21.42;32.66
65707;SHT31;52423;43.512;5.220;2023-05-10T14:32:45;21.41;32.74
65707;SHT31;52423;43.512;5.220;2023-05-10T14:35:11;21.50;33.10
65707;SHT31;52423;43.512;5.220;2023-05-10T14:37:38;21.60;33.55
65707;SHT31;52423;43.512;5.220;2023-05-10T14:40:03;21.72;33.11
65707;SHT31;52423;43.512;5.220;2023-05-10T14:42:29;21.69;32.24
65707;SHT31;52423;43.512;5.220;2023-05-10T14:44:54;21.83;33.36
65707;SHT31;52423;43.512;5.220;2023-05-10T14:47:20;21.79;31.53
65707;SHT31;52423;43.512;5.220;2023-05-10T14:49:45;21.53;30.62
65707;SHT31;52423;43.512;5.220;2023-05-10T14:52:11;21.55;30.92
65707;SHT31;52423;43.512;5.220;2023-05-10T14:54:37;21.55;31.10
65707;SHT31;52423;43.512;5.220;2023-05-10T14:57:02;21.45;32.44
65707;SHT31;52423;43.512;5.220;2023-05-10T14:59:28;21.52;31.82
65707;SHT31;52423;43.512;5.220;2023-05-10T15:01:53;21.41;32.47
65707;SHT31;52423;43.512;5.220;2023-05-10T15:04:18;21.63;31.66
65707;SHT31;52423;43.512;5.220;2023-05-10T15:06:44;21.46;32.06
65707;SHT31;52423;43.512;5.220;2023-05-10T15:09:10;21.33;33.06
65707;SHT31;52423;43.512;5.220;2023-05-10T15:11:35;21.55;32.81
65707;SHT31;52423;43.512;5.220;2023-05-10T15:14:01;21.53;32.36
65707;SHT31;52423;43.512;5.220;2023-05-10T15:16:27;21.25;32.31
65707;SHT31;52423;43.512;5.220;2023-05-10T15:18:52;21.22;31.73
65707;SHT31;52423;43.512;5.220;2023-05-10T15:21:17;21.38;31.64
65707;SHT31;52423;43.512;5.220;2023-05-10T15:23:43;21.47;32.05
65707;SHT31;52423;43.512;5.220;2023-05-10T15:26:08;21.31;31.51
65707;SHT31;52423;43.512;5.220;2023-05-10T15:28:33;21.02;32.42
65707;SHT31;52423;43.512;5.220;2023-05-10T15:30:59;21.04;32.71
65707;SHT31;52423;43.512;5.220;2023-05-10T15:33:25;21.19;32.90
65707;SHT31;52423;43.512;5.220;2023-05-10T15:35:52;21.39;32.18
65707;SHT31;52423;43.512;5.220;2023-05-10T15:38:18;21.36;32.14
65707;SHT31;52423;43.512;5.220;2023-05-10T15:40:44;21.24;32.67
65707;SHT31;52423;43.512;5.220;2023-05-10T15:43:09;21.22;31.70
65707;SHT31;52423;43.512;5.220;2023-05-10T15:45:35;21.21;31.75
65707;SHT31;52423;43.512;5.220;2023-05-10T15:48:00;21.06;32.02
65707;SHT31;52423;43.512;5.220;2023-05-10T15:50:26;21.09;32.93
65707;SHT31;52423;43.512;5.220;2023-05-10T15:52:51;21.15;32.57
65707;SHT31;52423;43.512;5.220;2023-05-10T15:55:17;21.12;32.28
65707;SHT31;52423;43.512;5.220;2023-05-10T15:57:43;21.09;32.41
65707;SHT31;52423;43.512;5.220;2023-05-10T16:00:10;21.11;32.76
65707;SHT31;52423;43.512;5.220;2023-05-10T16:02:36;21.04;32.57